Data for 08/07/2008

Time Sea-Level Adjusted Pressure Absolute Pressure Temperature Relative Humidity Dew Point   
(mb) (inHg) (mb) (inHg) (C) (F) (%) (C) (F)
00:05 1022 30.18 851 25.13 23.3 74 33 6.4 43.5
00:10 1022 30.18 851 25.13 23.2 73.8 33 6.4 43.5
00:15 1022 30.18 851 25.13 23.1 73.6 34 6.5 43.6
00:20 1022 30.18 851 25.13 23.1 73.6 34 6.5 43.6
00:25 1022 30.18 851 25.13 23 73.5 34 6.5 43.7
00:30 1022 30.18 851 25.13 23 73.3 34 6.6 43.9
00:35 1022 30.18 851 25.13 22.8 73.1 35 6.8 44.2
00:40 1022 30.18 851 25.13 22.7 72.8 36 6.8 44.3
00:45 1022 30.18 851 25.13 22.5 72.6 36 6.7 44.1
00:50 1022 30.18 851 25.13 22.5 72.5 36 6.9 44.4
00:55 1022 30.18 851 25.13 22.4 72.3 36 6.9 44.3
01:00 1022 30.18 851 25.13 22.3 72.2 36 6.9 44.4
01:05 1022 30.18 851 25.13 22.3 72.2 36 6.9 44.3
01:10 1022 30.18 851 25.13 22.2 72 37 7 44.6
01:15 1022 30.18 851 25.13 22.1 71.9 37 6.9 44.4
01:20 1022 30.18 851 25.13 22.2 71.9 37 7 44.7
01:25 1022 30.18 851 25.13 22.1 71.8 37 7.1 44.8
01:30 1022 30.18 851 25.13 22.1 71.7 38 7.1 44.8
01:35 1022 30.18 851 25.13 22 71.6 38 7.1 44.8
01:40 1022 30.18 851 25.13 22 71.7 37 6.9 44.5
01:45 1022 30.18 851 25.13 22 71.7 37 7 44.6
01:50 1022 30.18 851 25.13 22 71.5 38 7.1 44.7
01:55 1022 30.18 851 25.13 21.9 71.4 38 7.1 44.8
02:00 1022 30.18 851 25.13 21.9 71.3 38 7.1 44.8
02:05 1022 30.18 851 25.13 21.8 71.2 38 7.1 44.8
02:10 1022 30.18 851 25.13 21.8 71.2 38 7.1 44.7
02:15 1022 30.18 851 25.13 21.7 71 39 7.2 44.9
02:20 1022 30.18 851 25.13 21.6 70.8 39 7.2 44.9
02:25 1022 30.18 851 25.13 21.5 70.7 39 7.2 45
02:30 1022 30.18 851 25.13 21.5 70.7 39 7.2 44.9
02:35 1022 30.18 851 25.13 21.5 70.6 39 7.2 45
02:40 1022 30.18 851 25.13 21.4 70.6 39 7.2 45
02:45 1022 30.18 851 25.13 21.5 70.6 39 7.3 45.1
02:50 1022 30.18 851 25.13 21.5 70.7 39 7.3 45.1
02:55 1022 30.18 851 25.13 21.5 70.6 40 7.4 45.2
03:00 1022 30.18 851 25.13 21.5 70.7 40 7.4 45.4
03:05 1022 30.18 851 25.13 21.4 70.5 40 7.4 45.4
03:10 1022 30.18 851 25.13 21.4 70.6 40 7.3 45.2
03:15 1022 30.18 851 25.13 21.4 70.4 40 7.4 45.3
03:20 1022 30.18 851 25.13 21.3 70.4 40 7.3 45.2
03:25 1022 30.18 851 25.13 21.3 70.3 40 7.5 45.4
03:30 1022 30.18 851 25.13 21.2 70.1 41 7.4 45.4
03:35 1022 30.18 851 25.13 21.2 70.1 41 7.4 45.3
03:40 1022 30.18 851 25.13 21.1 69.9 42 7.7 45.8
03:45 1022 30.18 851 25.13 21.1 70 41 7.3 45.2
03:50 1022 30.18 851 25.13 21.1 70.1 41 7.5 45.5
03:55 1022 30.18 851 25.13 21 69.9 40 7.3 45.1
04:00 1022 30.18 851 25.13 21.1 70 40 7.2 45
04:05 1022 30.18 851 25.13 21.2 70.1 41 7.6 45.6
04:10 1022 30.18 851 25.13 20.9 69.6 41 7.4 45.4
04:15 1022 30.18 851 25.13 20.9 69.6 41 7.4 45.3
04:20 1022 30.18 851 25.13 20.8 69.4 41 7.3 45.2
04:25 1022 30.18 851 25.13 20.7 69.3 42 7.4 45.3
04:30 1022 30.18 851 25.13 20.7 69.3 41 7.3 45.1
04:35 1022 30.18 851 25.13 20.7 69.3 42 7.4 45.3
04:40 1022 30.18 851 25.13 20.7 69.2 42 7.4 45.4
04:45 1022 30.18 851 25.13 20.6 69 42 7.4 45.4
04:50 1022 30.18 851 25.13 20.5 68.8 42 7.4 45.4
04:55 1022 30.18 851 25.13 20.5 68.8 42 7.4 45.4
05:00 1022 30.18 851 25.13 20.4 68.8 43 7.5 45.5
05:05 1022 30.18 851 25.13 20.4 68.6 43 7.6 45.6
05:10 1022 30.18 851 25.13 20.3 68.6 43 7.5 45.5
05:15 1022 30.18 851 25.13 20.4 68.7 42 7.4 45.2
05:20 1022 30.18 851 25.13 20.4 68.8 43 7.5 45.4
05:25 1022 30.18 851 25.13 20.4 68.7 43 7.5 45.6
05:30 1022 30.18 851 25.13 20.2 68.4 44 7.6 45.7
05:35 1022 30.18 851 25.13 20 68 45 7.8 46
05:40 1022 30.18 851 25.13 19.8 67.6 45 7.7 45.9
05:45 1022 30.18 851 25.13 19.6 67.3 46 7.8 46
05:50 1022 30.18 851 25.13 19.5 67.1 46 7.8 46.1
05:55 1022 30.18 851 25.13 19.4 67 47 7.8 46.1
06:00 1022 30.18 851 25.13 19.4 66.9 46 7.7 45.9
06:05 1022 30.18 851 25.13 19.4 66.8 47 7.9 46.3
06:10 1022 30.18 851 25.13 19.1 66.4 48 7.8 46.1
06:15 1022 30.18 851 25.13 19.2 66.5 47 7.6 45.7
06:20 1022 30.18 851 25.13 19.4 66.9 46 7.5 45.6
06:25 1022 30.18 851 25.13 19.5 67.1 46 7.7 45.9
06:30 1022 30.18 851 25.13 19.4 66.8 47 7.8 46
06:35 1022 30.18 851 25.13 19.2 66.6 47 7.7 45.9
06:40 1022 30.18 851 25.13 19.3 66.7 47 7.8 46
06:45 1022 30.18 851 25.13 19.2 66.6 47 7.8 46
06:50 1022 30.18 851 25.13 19.3 66.7 47 7.7 45.8
06:55 1022 30.18 851 25.13 19.2 66.5 47 7.7 45.9
07:00 1022 30.18 851 25.13 19.3 66.7 47 7.8 46.1
07:05 1022 30.18 851 25.13 19.3 66.7 47 8 46.3
07:10 1022 30.18 851 25.13 19.3 66.7 47 7.8 46
07:15 1022 30.18 851 25.13 19.4 66.8 47 7.9 46.3
07:20 1022 30.18 851 25.13 19.5 67 48 8.1 46.7
07:25 1022 30.18 851 25.13 19.6 67.2 47 8.1 46.6
07:30 1022 30.18 851 25.13 19.7 67.4 46 8 46.4
07:35 1022 30.18 851 25.13 19.9 67.8 46 8.1 46.6
07:40 1022 30.18 851 25.13 19.9 67.8 47 8.4 47.2
07:45 1022 30.18 851 25.13 19.9 67.9 47 8.5 47.4
07:50 1022 30.18 851 25.13 20.2 68.3 47 8.6 47.5
07:55 1022 30.18 851 25.13 20.3 68.6 47 8.8 47.8
08:00 1022 30.18 851 25.13 20.7 69.2 46 8.8 47.9
08:05 1022 30.18 851 25.13 20.8 69.4 45 8.6 47.4
08:10 1022 30.18 851 25.13 21 69.7 45 8.8 47.9
08:15 1022 30.18 851 25.13 21.3 70.3 46 9.2 48.6
08:20 1022 30.18 851 25.13 21.1 69.9 46 9.3 48.8
08:25 1022 30.18 851 25.13 20.8 69.5 46 8.8 47.9
08:30 1022 30.18 851 25.13 21 69.7 44 8.6 47.4
08:35 1022 30.18 851 25.13 21.5 70.7 42 8.3 47
08:40 1022 30.18 851 25.13 22 71.6 42 8.5 47.3
08:45 1022 30.18 851 25.13 22.6 72.6 41 8.7 47.7
08:50 1022 30.18 851 25.13 23.1 73.6 39 8.5 47.2
08:55 1022 30.18 851 25.13 23.2 73.8 39 8.7 47.6
09:00 1022 30.18 851 25.13 23 73.3 41 9.1 48.4
09:05 1022 30.18 851 25.13 22.9 73.2 40 8.9 48
09:10 1022 30.18 851 25.13 22.8 73.1 39 8.5 47.3
09:15 1022 30.18 851 25.13 23.1 73.5 39 8.6 47.4
09:20 1022 30.18 851 25.13 23.3 74 39 8.7 47.6
09:25 1022 30.18 851 25.13 23.7 74.7 38 8.6 47.6
09:30 1022 30.18 851 25.13 24.4 75.9 35 8.1 46.6
09:35 1022 30.18 851 25.13 24.7 76.4 36 8.6 47.6
09:40 1022 30.18 851 25.13 24.9 76.9 35 8.5 47.2
09:45 1022 30.18 851 25.13 25 76.9 34 8.3 46.9
09:50 1022 30.18 851 25.13 25.2 77.3 33 8.1 46.7
09:55 1021 30.15 851 25.13 26.2 79.1 33 8.8 47.8
10:00 1021 30.15 851 25.13 25.8 78.5 33 8.8 47.8
10:05 1021 30.15 851 25.13 25.5 77.8 34 8.9 47.9
10:10 1021 30.15 850 25.1 25.4 77.7 35 9 48.2
10:15 1021 30.15 850 25.1 25.3 77.5 40 11.1 51.9
10:20 1021 30.15 850 25.1 24.6 76.2 40 10.3 50.6
10:25 1021 30.15 850 25.1 24.6 76.2 40 10.3 50.6
10:30 1021 30.15 850 25.1 24.6 76.2 40 10.4 50.7
10:35 1021 30.15 850 25.1 25.2 77.4 36 9.4 49
10:40 1021 30.15 850 25.1 25.2 77.3 36 9.1 48.5
10:45 1021 30.15 850 25.1 26.1 79 34 9.3 48.8
10:50 1021 30.15 850 25.1 27.2 80.9 33 9.8 49.6
10:55 1021 30.15 850 25.1 27.3 81.1 34 10.2 50.3
11:00 1021 30.15 850 25.1 27 80.6 35 10.4 50.7
11:05 1021 30.15 850 25.1 26 78.8 35 9.7 49.5
11:10 1021 30.15 850 25.1 25.8 78.5 35 9.6 49.4
11:15 1021 30.15 850 25.1 26.1 79 34 9.4 49
11:20 1021 30.15 850 25.1 26.7 80.1 35 10.3 50.5
11:25 1021 30.15 850 25.1 26.9 80.5 34 10.1 50.2
11:30 1021 30.15 850 25.1 27.6 81.6 32 9.8 49.7
11:35 1021 30.15 850 25.1 27.9 82.1 32 10.1 50.2
11:40 1021 30.15 850 25.1 28.2 82.8 31 9.8 49.6
11:45 1021 30.15 850 25.1 28.2 82.7 30 9.5 49.1
11:50 1021 30.15 850 25.1 27.3 81.1 31 9.1 48.4
11:55 1021 30.15 850 25.1 27.6 81.6 32 9.7 49.5
12:00 1021 30.15 850 25.1 28.4 83.1 29 9 48.2
12:05 1020 30.12 850 25.1 28.7 83.6 29 9.4 48.9
12:10 1020 30.12 850 25.1 28.9 84.1 28 9 48.3
12:15 1020 30.12 850 25.1 29.1 84.3 28 9.1 48.3
12:20 1020 30.12 850 25.1 29.8 85.6 27 9.1 48.5
12:25 1020 30.12 850 25.1 30.1 86.3 28 9.9 49.8
12:30 1020 30.12 850 25.1 30.4 86.7 26 9.2 48.6
12:35 1020 30.12 849 25.07 30 86.1 29 10.3 50.6
12:40 1020 30.12 849 25.07 29.9 85.9 27 9.4 49
12:45 1020 30.12 849 25.07 30.5 86.9 27 9.6 49.3
12:50 1020 30.12 849 25.07 30.4 86.8 26 9.3 48.7
12:55 1020 30.12 849 25.07 31.2 88.1 25 9 48.2
13:00 1020 30.12 849 25.07 32.1 89.8 23 8.5 47.3
13:05 1020 30.12 849 25.07 32.5 90.5 23 9.3 48.8
13:10 1020 30.12 849 25.07 32 89.6 21 7.4 45.4
13:15 1020 30.12 849 25.07 32 89.7 20 6.8 44.3
13:20 1020 30.12 849 25.07 32.4 90.4 20 6.8 44.2
13:25 1020 30.12 849 25.07 32 89.7 21 7.1 44.7
13:30 1020 30.12 849 25.07 32.2 89.9 21 7.2 44.9
13:35 1020 30.12 849 25.07 32.1 89.9 22 7.8 46.1
13:40 1019 30.09 849 25.07 31.9 89.4 21 7.5 45.5
13:45 1019 30.09 849 25.07 31.3 88.3 21 7 44.6
13:50 1019 30.09 849 25.07 31.2 88.2 22 7 44.7
13:55 1019 30.09 848 25.04 31 87.8 21 6.5 43.7
14:00 1019 30.09 848 25.04 31.6 88.9 22 7.7 45.9
14:05 1019 30.09 848 25.04 31.1 87.9 22 7.2 45
14:10 1019 30.09 848 25.04 31.4 88.5 21 6.7 44
14:15 1019 30.09 848 25.04 31.6 88.9 22 7.5 45.5
14:20 1019 30.09 848 25.04 31.2 88.1 21 6.7 44.1
14:25 1019 30.09 848 25.04 32.5 90.5 21 7.7 45.8
14:30 1019 30.09 848 25.04 32.9 91.3 21 8.2 46.7
14:35 1019 30.09 848 25.04 33.7 92.6 19 7.4 45.2
14:40 1019 30.09 848 25.04 34.1 93.3 19 7.3 45.1
14:45 1019 30.09 848 25.04 34.3 93.7 18 7.2 45
14:50 1019 30.09 848 25.04 33.2 91.8 19 7 44.7
14:55 1018 30.06 848 25.04 32.9 91.2 19 6.7 44
15:00 1018 30.06 848 25.04 33.1 91.6 20 7.2 45
15:05 1018 30.06 848 25.04 33.1 91.5 19 7.1 44.8
15:10 1018 30.06 847 25.01 33.5 92.2 20 7.5 45.5
15:15 1018 30.06 847 25.01 32.9 91.3 19 6.6 43.8
15:20 1018 30.06 847 25.01 32.9 91.2 20 7.2 44.9
15:25 1018 30.06 847 25.01 32.6 90.6 20 6.8 44.2
15:30 1018 30.06 847 25.01 33.5 92.2 18 6.4 43.5
15:35 1018 30.06 847 25.01 33 91.3 20 7.4 45.4
15:40 1018 30.06 847 25.01 32.7 90.9 20 7.3 45.1
15:45 1018 30.06 847 25.01 32.4 90.2 18 5.6 42
15:50 1018 30.06 847 25.01 32.5 90.5 18 5.3 41.6
15:55 1018 30.06 847 25.01 31.7 89 20 6.1 43
16:00 1018 30.06 847 25.01 31.8 89.2 18 5.1 41.2
16:05 1018 30.06 847 25.01 32.7 90.8 18 5.5 41.9
16:10 1018 30.06 847 25.01 33.1 91.6 17 5.5 42
16:15 1018 30.06 847 25.01 33 91.5 17 4.8 40.6
16:20 1017 30.03 847 25.01 32 89.6 18 5.3 41.5
16:25 1017 30.03 847 25.01 31.4 88.5 20 5.8 42.5
16:30 1017 30.03 847 25.01 31.4 88.5 20 5.9 42.6
16:35 1017 30.03 846 24.98 31.1 87.9 19 4.8 40.6
16:40 1017 30.03 846 24.98 31.7 89 19 5.7 42.3
16:45 1017 30.03 846 24.98 31.7 89 16 3.5 38.3
16:50 1017 30.03 846 24.98 31.6 88.8 17 4.2 39.6
16:55 1017 30.03 846 24.98 31.7 89 18 4.7 40.4
17:00 1017 30.03 846 24.98 31.9 89.4 17 4.4 39.9
17:05 1017 30.03 846 24.98 31.8 89.3 20 6.1 43.1
17:10 1017 30.03 847 25.01 31.7 89.1 19 5.6 42.1
17:15 1017 30.03 847 25.01 31.5 88.6 20 6.1 43
17:20 1017 30.03 846 24.98 31.4 88.5 20 6.1 42.9
17:25 1017 30.03 846 24.98 31.2 88.1 21 6.4 43.6
17:30 1017 30.03 846 24.98 31 87.8 22 7.2 44.9
17:35 1018 30.06 847 25.01 30.6 87 24 8 46.5
17:40 1018 30.06 847 25.01 28 82.4 37 12.1 53.8
17:45 1019 30.09 848 25.04 24.3 75.8 37 8.9 47.9
17:50 1019 30.09 848 25.04 25.3 77.6 31 7 44.6
17:55 1020 30.12 849 25.07 25.8 78.5 37 10.1 50.2
18:00 1020 30.12 849 25.07 24.3 75.7 51 13.6 56.5
18:05 1020 30.12 850 25.1 22 71.6 57 13.2 55.8
18:10 1021 30.15 850 25.1 20.4 68.7 66 13.9 57
18:15 1021 30.15 850 25.1 19.6 67.2 70 14.1 57.4
18:20 1021 30.15 850 25.1 19.4 67 70 13.8 56.9
18:25 1022 30.18 851 25.13 19.1 66.3 73 14.2 57.5
18:30 1022 30.18 851 25.13 18.6 65.6 76 14.3 57.8
18:35 1022 30.18 851 25.13 18.1 64.6 77 14.1 57.3
18:40 1022 30.18 851 25.13 17.9 64.1 80 14.5 58
18:45 1022 30.18 851 25.13 17.6 63.7 79 14 57.2
18:50 1022 30.18 851 25.13 17.8 64 81 14.4 58
18:55 1022 30.18 851 25.13 17.6 63.7 80 14.2 57.6
19:00 1022 30.18 851 25.13 17.6 63.6 83 14.7 58.4
19:05 1022 30.18 851 25.13 17.2 63 86 14.9 58.8
19:10 1022 30.18 851 25.13 17.5 63.4 82 14.5 58.1
19:15 1022 30.18 851 25.13 17.7 63.8 86 15.3 59.5
19:20 1021 30.15 851 25.13 17.5 63.4 85 14.9 58.7
19:25 1021 30.15 850 25.1 17.3 63.1 89 15.4 59.6
19:30 1021 30.15 850 25.1 17.1 62.8 88 15.2 59.4
19:35 1022 30.18 851 25.13 17.3 63.2 87 15.2 59.4
19:40 1022 30.18 851 25.13 17.4 63.3 82 14.3 57.7
19:45 1022 30.18 851 25.13 17.4 63.4 79 13.7 56.7
19:50 1022 30.18 851 25.13 17.6 63.8 78 13.8 56.8
19:55 1022 30.18 851 25.13 17.9 64.2 81 14.6 58.2
20:00 1022 30.18 851 25.13 18 64.4 79 14.4 57.9
20:05 1022 30.18 851 25.13 17.8 64 80 14.3 57.8
20:10 1022 30.18 851 25.13 17.7 63.9 79 14 57.2
20:15 1021 30.15 851 25.13 17.4 63.4 87 15.3 59.5
20:20 1021 30.15 850 25.1 17.1 62.8 84 14.5 58.1
20:25 1021 30.15 850 25.1 17.3 63.1 76 13 55.4
20:30 1021 30.15 850 25.1 17.7 63.9 78 13.8 56.9
20:35 1021 30.15 850 25.1 17.4 63.3 84 14.7 58.5
20:40 1021 30.15 850 25.1 17.2 63 83 14.3 57.7
20:45 1021 30.15 850 25.1 17.2 62.9 84 14.5 58.1
20:50 1021 30.15 850 25.1 16.9 62.4 85 14.4 57.9
20:55 1021 30.15 850 25.1 16.8 62.2 84 14.1 57.3
21:00 1021 30.15 850 25.1 16.9 62.3 85 14.3 57.8
21:05 1020 30.12 850 25.1 16.7 62.1 85 14.3 57.8
21:10 1020 30.12 849 25.07 16.5 61.7 88 14.6 58.3
21:15 1020 30.12 849 25.07 16.3 61.4 90 14.7 58.5
21:20 1020 30.12 849 25.07 16.2 61.2 88 14.3 57.7
21:25 1020 30.12 849 25.07 16.3 61.3 87 14.2 57.5
21:30 1020 30.12 849 25.07 16.2 61.2 87 14 57.3
21:35 1020 30.12 849 25.07 16.3 61.3 86 13.9 56.9
21:40 1020 30.12 849 25.07 16.3 61.4 84 13.7 56.7
21:45 1020 30.12 849 25.07 16.4 61.5 84 13.7 56.7
21:50 1020 30.12 849 25.07 16.4 61.5 84 13.6 56.5
21:55 1020 30.12 849 25.07 16.3 61.4 84 13.7 56.6
22:00 1020 30.12 849 25.07 16.3 61.3 84 13.7 56.6
22:05 1020 30.12 849 25.07 16.2 61.1 84 13.6 56.5
22:10 1020 30.12 849 25.07 16.3 61.3 83 13.4 56.1
22:15 1020 30.12 849 25.07 16.4 61.4 84 13.8 56.8
22:20 1020 30.12 849 25.07 16.3 61.4 83 13.4 56.1
22:25 1020 30.12 849 25.07 16.3 61.4 83 13.5 56.3
22:30 1020 30.12 849 25.07 16.3 61.3 83 13.5 56.3
22:35 1020 30.12 849 25.07 16.2 61.1 84 13.5 56.3
22:40 1020 30.12 849 25.07 16.1 60.9 85 13.5 56.3
22:45 1020 30.12 849 25.07 16 60.9 85 13.6 56.4
22:50 1020 30.12 849 25.07 16 60.7 86 13.6 56.5
22:55 1020 30.12 849 25.07 15.9 60.6 85 13.4 56
23:00 1020 30.12 849 25.07 16.1 60.9 85 13.6 56.6
23:05 1020 30.12 849 25.07 16 60.7 83 13.2 55.8
23:10 1020 30.12 849 25.07 16 60.7 83 13.2 55.7
23:15 1020 30.12 849 25.07 15.9 60.5 84 13.1 55.6
23:20 1020 30.12 849 25.07 15.7 60.3 85 13.2 55.7
23:25 1020 30.12 849 25.07 15.5 59.9 86 13.2 55.7
23:30 1019 30.09 849 25.07 15.3 59.6 87 13.1 55.6
23:35 1019 30.09 849 25.07 15.3 59.5 86 12.9 55.3
23:40 1019 30.09 849 25.07 15.3 59.6 88 13.4 56.1
23:45 1019 30.09 849 25.07 15.3 59.6 86 13 55.4
23:50 1019 30.09 849 25.07 15.2 59.4 86 12.9 55.2
23:55 1019 30.09 849 25.07 15.2 59.3 85 12.7 54.8
24:00 1019 30.09 849 25.07 15.3 59.5 85 12.7 54.9